Time;durP1;ratioP1;P1;durP2;ratioP2;P2;SDS_P1;SDS_P2;PMS_P1;PMS_P2;Temp;Humidity;BMP_temperature;BMP_pressure;BME280_temperature;BME280_humidity;BME280_pressure;Samples;Min_cycle;Max_cycle;Signal;HPM_P1;HPM_P2
2022/09/15 00:02:14;;;;;;;0.80;0.43;;;19.30;99.90;;;;;;5140232;27;20468;-72
2022/09/15 00:04:41;;;;;;;1.20;0.33;;;19.30;99.90;;;;;;5137486;27;20458;-72
2022/09/15 00:07:07;;;;;;;0.83;0.40;;;19.20;99.90;;;;;;5139379;27;20434;-72
2022/09/15 00:09:34;;;;;;;0.73;0.30;;;19.20;99.90;;;;;;5137745;27;20479;-72
2022/09/15 00:12:02;;;;;;;0.70;0.40;;;19.30;99.90;;;;;;5139690;27;20444;-71
2022/09/15 00:14:28;;;;;;;0.50;0.30;;;19.30;99.90;;;;;;5137237;27;20492;-72
2022/09/15 00:16:55;;;;;;;0.60;0.40;;;19.30;99.90;;;;;;5139836;27;20906;-71
2022/09/15 00:19:23;;;;;;;0.50;0.33;;;19.40;99.90;;;;;;5136957;27;20478;-71
2022/09/15 00:21:50;;;;;;;0.63;0.33;;;19.30;99.90;;;;;;5118612;27;20463;-71
2022/09/15 00:24:17;;;;;;;0.50;0.30;;;19.30;99.90;;;;;;5119173;28;20942;-71
2022/09/15 00:26:44;;;;;;;0.63;0.40;;;19.30;99.90;;;;;;5115998;28;20546;-71
2022/09/15 00:29:11;;;;;;;0.50;0.40;;;19.30;99.90;;;;;;5117293;28;20476;-72
2022/09/15 00:31:38;;;;;;;0.50;0.40;;;19.30;99.90;;;;;;5117727;28;20456;-71
2022/09/15 00:34:05;;;;;;;0.60;0.40;;;19.20;99.90;;;;;;5119363;28;20449;-71
2022/09/15 00:36:34;;;;;;;0.50;0.30;;;19.20;99.90;;;;;;5117241;28;20509;-71
2022/09/15 00:39:01;;;;;;;1.10;0.40;;;19.10;99.90;;;;;;5112895;28;20835;-72
2022/09/15 00:41:28;;;;;;;0.50;0.40;;;19.10;99.90;;;;;;5116750;28;20760;-72
2022/09/15 00:43:57;;;;;;;0.70;0.30;;;19.10;99.90;;;;;;5118682;28;20445;-72
2022/09/15 00:46:27;;;;;;;0.70;0.30;;;19.20;99.90;;;;;;5117112;28;20448;-72
2022/09/15 00:48:59;;;;;;;0.80;0.40;;;19.20;99.90;;;;;;5122104;27;20481;-72
2022/09/15 00:51:33;;;;;;;0.93;0.37;;;19.20;99.90;;;;;;5116879;28;20446;-72
2022/09/15 00:54:04;;;;;;;0.40;0.30;;;19.20;99.90;;;;;;5118625;28;20440;-72
2022/09/15 00:56:35;;;;;;;0.40;0.30;;;19.20;99.90;;;;;;5115725;28;20888;-73
2022/09/15 00:59:05;;;;;;;0.50;0.30;;;19.20;99.90;;;;;;5158473;27;20478;-72
2022/09/15 01:01:32;;;;;;;0.50;0.30;;;19.20;99.90;;;;;;5142789;27;20519;-73
2022/09/15 01:04:00;;;;;;;0.50;0.30;;;19.20;99.90;;;;;;5159595;27;20443;-72
2022/09/15 01:06:33;;;;;;;0.40;0.20;;;19.20;99.90;;;;;;5133361;27;20464;-72
2022/09/15 01:09:07;;;;;;;1.50;0.30;;;19.20;99.90;;;;;;5118537;28;20487;-72
2022/09/15 01:11:34;;;;;;;0.67;0.30;;;19.20;99.90;;;;;;5116580;28;20459;-72
2022/09/15 01:14:01;;;;;;;0.57;0.30;;;19.10;99.90;;;;;;5118382;28;20872;-72
2022/09/15 01:16:37;;;;;;;1.00;0.40;;;19.10;99.90;;;;;;5133461;27;20836;-72
2022/09/15 01:19:20;;;;;;;1.00;0.40;;;19.00;99.90;;;;;;5138481;27;20753;-72
2022/09/15 01:21:51;;;;;;;0.77;0.33;;;19.00;99.90;;;;;;5136415;27;20500;-73
2022/09/15 01:24:54;;;;;;;0.47;0.30;;;19.00;99.90;;;;;;5129043;27;20464;-72
2022/09/15 01:27:37;;;;;;;0.60;0.40;;;19.10;99.90;;;;;;5074414;28;20457;-72
2022/09/15 01:30:11;;;;;;;0.60;0.30;;;19.20;99.90;;;;;;5115437;28;20480;-72
2022/09/15 01:33:05;;;;;;;0.40;0.30;;;19.20;99.90;;;;;;5118059;28;20532;-72
2022/09/15 01:35:44;;;;;;;0.60;0.40;;;19.30;99.90;;;;;;5115761;28;20888;-72
2022/09/15 01:38:17;;;;;;;0.67;0.40;;;19.30;99.90;;;;;;5117954;28;20446;-72
2022/09/15 01:40:51;;;;;;;0.50;0.40;;;19.30;99.90;;;;;;5117581;28;20878;-72
2022/09/15 01:43:20;;;;;;;0.80;0.30;;;19.20;99.90;;;;;;5123259;27;20458;-73
2022/09/15 01:45:51;;;;;;;0.40;0.30;;;19.20;99.90;;;;;;5116874;28;20440;-72
2022/09/15 01:48:19;;;;;;;0.87;0.40;;;19.20;99.90;;;;;;5117954;28;20441;-72
2022/09/15 01:50:50;;;;;;;0.53;0.37;;;19.20;99.90;;;;;;5118421;28;20484;-72
2022/09/15 01:53:19;;;;;;;0.53;0.40;;;19.20;99.90;;;;;;5116808;28;20465;-72
2022/09/15 01:55:52;;;;;;;0.50;0.30;;;19.20;99.90;;;;;;5116334;27;20457;-72
2022/09/15 01:58:19;;;;;;;0.63;0.30;;;19.20;99.90;;;;;;5115333;28;20456;-72
2022/09/15 02:00:51;;;;;;;0.90;0.40;;;19.20;99.90;;;;;;5118101;28;20445;-72
2022/09/15 02:03:22;;;;;;;1.73;0.50;;;19.20;99.90;;;;;;5117931;28;20538;-72
2022/09/15 02:05:52;;;;;;;0.40;0.40;;;19.10;99.90;;;;;;5134723;28;20466;-72
2022/09/15 02:08:26;;;;;;;0.60;0.40;;;19.20;99.90;;;;;;5131051;28;20495;-72
2022/09/15 02:11:00;;;;;;;0.50;0.30;;;19.20;99.90;;;;;;5138299;28;20461;-72
2022/09/15 02:13:33;;;;;;;1.00;0.50;;;19.10;99.90;;;;;;5136052;28;20504;-72
2022/09/15 02:16:03;;;;;;;1.33;0.40;;;19.10;99.90;;;;;;5138538;28;20440;-72
2022/09/15 02:18:43;;;;;;;9.53;0.40;;;19.10;99.90;;;;;;5115345;28;20492;-72
2022/09/15 02:21:14;;;;;;;0.53;0.40;;;19.00;99.90;;;;;;5116923;28;20451;-72
2022/09/15 02:23:49;;;;;;;1.17;0.67;;;19.00;99.90;;;;;;5114964;28;20452;-72
2022/09/15 02:26:21;;;;;;;1.90;0.30;;;19.00;99.90;;;;;;5117700;28;20444;-72
2022/09/15 02:28:50;;;;;;;0.60;0.30;;;18.90;99.90;;;;;;5116599;28;20448;-72
2022/09/15 02:31:22;;;;;;;0.50;0.30;;;19.00;99.90;;;;;;5138323;27;20546;-72
2022/09/15 02:33:55;;;;;;;0.47;0.30;;;19.00;99.90;;;;;;5140962;27;20826;-72
2022/09/15 02:36:23;;;;;;;0.50;0.30;;;19.20;99.90;;;;;;5137648;28;20455;-71
2022/09/15 02:38:52;;;;;;;0.50;0.20;;;19.30;99.90;;;;;;5137528;27;20452;-72
2022/09/15 02:41:19;;;;;;;0.40;0.20;;;19.20;99.90;;;;;;5142005;27;20487;-72
2022/09/15 02:43:48;;;;;;;0.70;0.30;;;19.20;99.90;;;;;;5134575;27;20496;-72
2022/09/15 02:46:16;;;;;;;1.53;0.30;;;19.10;99.90;;;;;;5120408;28;20531;-72
2022/09/15 02:48:45;;;;;;;0.70;0.30;;;19.20;99.90;;;;;;5146965;27;20472;-72
2022/09/15 02:51:16;;;;;;;0.43;0.30;;;19.10;99.90;;;;;;5162610;27;20451;-72
2022/09/15 02:53:45;;;;;;;0.50;0.30;;;19.10;99.90;;;;;;5161989;27;20549;-72
2022/09/15 02:56:12;;;;;;;0.60;0.30;;;19.20;99.90;;;;;;5155608;27;20495;-73
2022/09/15 02:58:39;;;;;;;0.50;0.30;;;19.10;99.90;;;;;;5119352;27;20463;-72
2022/09/15 03:01:08;;;;;;;1.60;0.30;;;19.00;99.90;;;;;;5120544;28;20531;-72
2022/09/15 03:03:35;;;;;;;0.50;0.50;;;19.00;99.90;;;;;;5120704;28;20502;-72
2022/09/15 03:06:16;;;;;;;0.93;0.30;;;19.00;99.90;;;;;;5119956;27;20977;-72
2022/09/15 03:08:44;;;;;;;0.53;0.40;;;18.90;99.90;;;;;;5120551;28;20452;-72
2022/09/15 03:11:11;;;;;;;0.40;0.30;;;18.80;99.90;;;;;;5120276;28;20980;-72
2022/09/15 03:13:39;;;;;;;0.50;0.30;;;18.80;99.90;;;;;;5121591;27;20465;-72
2022/09/15 03:16:10;;;;;;;0.47;0.23;;;18.90;99.90;;;;;;5120892;27;20451;-72
2022/09/15 03:18:38;;;;;;;0.50;0.30;;;18.80;99.90;;;;;;5117728;28;20481;-72
2022/09/15 03:21:08;;;;;;;0.30;0.20;;;18.70;99.90;;;;;;5119522;27;20911;-71
2022/09/15 03:23:35;;;;;;;0.50;0.20;;;18.70;99.90;;;;;;5117595;28;20544;-72
2022/09/15 03:26:03;;;;;;;0.57;0.40;;;18.60;99.90;;;;;;5119041;28;20888;-73
2022/09/15 03:28:30;;;;;;;0.40;0.30;;;18.60;99.90;;;;;;5116078;28;20989;-71
2022/09/15 03:30:57;;;;;;;0.50;0.30;;;18.60;99.90;;;;;;5118733;27;20805;-73
2022/09/15 03:33:24;;;;;;;0.60;0.30;;;18.50;99.90;;;;;;5120024;27;20555;-72
2022/09/15 03:35:52;;;;;;;0.90;0.30;;;18.50;99.90;;;;;;5120577;28;20448;-73
2022/09/15 03:38:20;;;;;;;0.50;0.30;;;18.40;99.90;;;;;;5116864;28;20453;-73
2022/09/15 03:40:57;;;;;;;0.40;0.30;;;18.50;99.90;;;;;;5118911;27;20457;-73
2022/09/15 03:43:24;;;;;;;0.63;0.20;;;18.50;99.90;;;;;;5117165;27;20778;-73
2022/09/15 03:45:51;;;;;;;0.40;0.20;;;18.40;99.90;;;;;;5118914;28;20450;-72
2022/09/15 03:48:18;;;;;;;0.50;0.27;;;18.40;99.90;;;;;;5117226;28;20447;-72
2022/09/15 03:50:45;;;;;;;0.50;0.20;;;18.40;99.90;;;;;;5117403;27;20880;-72
2022/09/15 03:53:12;;;;;;;0.43;0.20;;;18.50;99.90;;;;;;5119782;27;20459;-72
2022/09/15 03:55:40;;;;;;;0.60;0.30;;;18.40;99.90;;;;;;5118672;28;20442;-71
2022/09/15 03:58:07;;;;;;;0.80;0.20;;;18.40;99.90;;;;;;5115997;28;20903;-72
2022/09/15 04:00:34;;;;;;;0.47;0.20;;;18.30;99.90;;;;;;5120564;27;20452;-71
2022/09/15 04:03:00;;;;;;;0.50;0.30;;;18.30;99.90;;;;;;5113297;27;20456;-73
2022/09/15 04:05:27;;;;;;;0.50;0.23;;;18.20;99.90;;;;;;5116920;28;20539;-73
2022/09/15 04:07:54;;;;;;;0.40;0.30;;;18.20;99.90;;;;;;5115115;28;20464;-73
2022/09/15 04:10:23;;;;;;;0.43;0.20;;;18.20;99.90;;;;;;5116978;28;20476;-73
2022/09/15 04:12:52;;;;;;;0.83;0.30;;;18.20;99.90;;;;;;5115651;27;20460;-73
2022/09/15 04:15:22;;;;;;;0.60;0.20;;;18.20;99.90;;;;;;5117466;28;20463;-72
2022/09/15 04:17:49;;;;;;;0.97;0.20;;;18.20;99.90;;;;;;5116185;28;20725;-73
2022/09/15 04:20:17;;;;;;;1.57;0.30;;;18.20;99.90;;;;;;5118368;27;20483;-73
2022/09/15 04:22:44;;;;;;;0.60;0.30;;;18.20;99.90;;;;;;5117206;28;20821;-73
2022/09/15 04:25:11;;;;;;;0.80;0.40;;;18.20;99.90;;;;;;5118349;28;20802;-73
2022/09/15 04:27:38;;;;;;;1.43;0.23;;;18.30;99.90;;;;;;5116246;28;20440;-73
2022/09/15 04:30:08;;;;;;;1.40;0.33;;;18.20;99.90;;;;;;5119712;27;20538;-73
2022/09/15 04:32:35;;;;;;;0.50;0.23;;;18.20;99.90;;;;;;5117381;28;20948;-73
2022/09/15 04:35:02;;;;;;;0.40;0.30;;;18.10;99.90;;;;;;5119436;28;20452;-73
2022/09/15 04:37:29;;;;;;;0.50;0.30;;;18.10;99.90;;;;;;5115985;28;20455;-73
2022/09/15 04:39:56;;;;;;;0.73;0.30;;;18.10;99.90;;;;;;5122555;27;20462;-74
2022/09/15 04:42:23;;;;;;;0.50;0.20;;;18.10;99.90;;;;;;5103626;28;20454;-73
2022/09/15 04:44:50;;;;;;;3.27;0.30;;;18.10;99.90;;;;;;5113097;28;20540;-74
2022/09/15 04:47:18;;;;;;;0.50;0.30;;;18.20;99.90;;;;;;5115278;28;20551;-73
2022/09/15 04:49:45;;;;;;;0.50;0.30;;;18.20;99.90;;;;;;5117605;27;20492;-73
2022/09/15 04:52:12;;;;;;;0.43;0.27;;;18.20;99.90;;;;;;5115916;28;20469;-73
2022/09/15 04:54:39;;;;;;;1.00;0.30;;;18.10;99.90;;;;;;5118110;28;20547;-73
2022/09/15 04:57:06;;;;;;;0.37;0.23;;;18.20;99.90;;;;;;5115591;28;20502;-72
2022/09/15 04:59:33;;;;;;;0.40;0.20;;;18.10;99.90;;;;;;5117184;28;20512;-72
2022/09/15 05:02:00;;;;;;;0.77;0.23;;;18.10;99.90;;;;;;5115257;28;20941;-72
2022/09/15 05:04:28;;;;;;;0.40;0.30;;;18.10;99.90;;;;;;5116572;28;20543;-71
2022/09/15 05:06:55;;;;;;;0.77;0.20;;;18.20;99.90;;;;;;5115736;28;20463;-71
2022/09/15 05:09:22;;;;;;;0.63;0.30;;;18.20;99.90;;;;;;5118192;28;20441;-72
2022/09/15 05:11:49;;;;;;;0.50;0.30;;;18.20;99.90;;;;;;5115509;28;20483;-72
2022/09/15 05:14:18;;;;;;;0.40;0.20;;;18.40;99.90;;;;;;5117620;28;20807;-72
2022/09/15 05:16:45;;;;;;;0.50;0.30;;;18.30;99.90;;;;;;5117050;28;20444;-72
2022/09/15 05:19:13;;;;;;;0.50;0.20;;;18.30;99.90;;;;;;5116751;28;20472;-72
2022/09/15 05:21:42;;;;;;;0.40;0.30;;;18.40;99.90;;;;;;5117005;28;20948;-72
2022/09/15 05:24:09;;;;;;;1.10;0.30;;;18.40;99.90;;;;;;5117645;28;20814;-71
2022/09/15 05:26:36;;;;;;;0.40;0.20;;;18.30;99.90;;;;;;5116724;28;20449;-72
2022/09/15 05:29:03;;;;;;;0.70;0.30;;;18.30;99.90;;;;;;5111160;28;20770;-72
2022/09/15 05:31:32;;;;;;;0.40;0.20;;;18.30;99.90;;;;;;5115558;28;20480;-71
2022/09/15 05:34:00;;;;;;;0.40;0.20;;;18.40;99.90;;;;;;5110226;28;20927;-71
2022/09/15 05:36:28;;;;;;;0.50;0.30;;;18.40;99.90;;;;;;5115188;28;20543;-72
2022/09/15 05:38:57;;;;;;;0.40;0.30;;;18.40;99.90;;;;;;5112392;28;20512;-71
2022/09/15 05:41:24;;;;;;;0.50;0.20;;;18.40;99.90;;;;;;5115298;28;20543;-72
2022/09/15 05:43:56;;;;;;;0.40;0.30;;;18.50;99.90;;;;;;5111354;28;20455;-72
2022/09/15 05:46:24;;;;;;;0.50;0.20;;;18.50;99.90;;;;;;5115911;28;20895;-72
2022/09/15 05:48:56;;;;;;;0.40;0.27;;;18.50;99.90;;;;;;5112017;28;20613;-72
2022/09/15 05:51:23;;;;;;;0.47;0.30;;;18.50;99.90;;;;;;5116348;28;20494;-72
2022/09/15 05:53:50;;;;;;;0.60;0.30;;;18.60;99.90;;;;;;5114233;28;20935;-72
2022/09/15 05:56:19;;;;;;;0.40;0.20;;;18.60;99.90;;;;;;5115259;28;20449;-72
2022/09/15 05:58:47;;;;;;;0.70;0.30;;;18.60;99.90;;;;;;5113204;28;20461;-72
2022/09/15 06:01:16;;;;;;;0.40;0.20;;;18.60;99.90;;;;;;5116332;28;20447;-73
2022/09/15 06:03:43;;;;;;;0.50;0.20;;;18.60;99.90;;;;;;5112683;28;20459;-72
2022/09/15 06:06:11;;;;;;;0.40;0.20;;;18.60;99.90;;;;;;5115611;28;20942;-73
2022/09/15 06:08:40;;;;;;;0.30;0.20;;;18.80;99.90;;;;;;5113942;28;21016;-72
2022/09/15 06:11:09;;;;;;;0.30;0.20;;;18.80;99.90;;;;;;5115655;28;21082;-73
2022/09/15 06:13:37;;;;;;;0.40;0.20;;;18.80;99.90;;;;;;5114499;28;21033;-72
2022/09/15 06:16:09;;;;;;;1.67;0.20;;;18.90;99.90;;;;;;5123508;27;20768;-72
2022/09/15 06:18:37;;;;;;;0.40;0.20;;;18.90;99.90;;;;;;5125267;27;20562;-73
2022/09/15 06:21:09;;;;;;;0.50;0.30;;;19.00;99.90;;;;;;5128199;27;20452;-73
2022/09/15 06:23:39;;;;;;;0.30;0.20;;;19.00;98.90;;;;;;5121946;27;20759;-73
2022/09/15 06:26:11;;;;;;;0.30;0.20;;;19.00;99.90;;;;;;5119188;28;20441;-72
2022/09/15 06:28:41;;;;;;;0.30;0.20;;;19.10;99.90;;;;;;5130028;27;20501;-74
2022/09/15 06:31:11;;;;;;;0.40;0.20;;;19.10;99.90;;;;;;5131642;27;20575;-72
2022/09/15 06:33:44;;;;;;;1.33;0.20;;;19.10;99.90;;;;;;5115654;27;21041;-72
2022/09/15 06:36:12;;;;;;;0.47;0.30;;;19.10;99.90;;;;;;5123742;27;20460;-72
2022/09/15 06:38:39;;;;;;;0.50;0.20;;;19.10;99.90;;;;;;5124984;27;20778;-72
2022/09/15 06:41:07;;;;;;;0.40;0.20;;;19.00;99.90;;;;;;5120230;27;20440;-72
2022/09/15 06:43:35;;;;;;;0.47;0.20;;;18.90;99.90;;;;;;5115954;28;20739;-72
2022/09/15 06:46:04;;;;;;;0.73;0.27;;;18.70;99.90;;;;;;5117691;28;21077;-71
2022/09/15 06:48:32;;;;;;;0.40;0.30;;;18.70;99.90;;;;;;5117329;28;20448;-71
2022/09/15 06:51:00;;;;;;;0.50;0.30;;;18.60;99.90;;;;;;5119451;28;20937;-71
2022/09/15 06:53:28;;;;;;;1.47;0.30;;;18.60;99.90;;;;;;5116206;27;20555;-71
2022/09/15 06:55:55;;;;;;;0.40;0.20;;;18.60;99.90;;;;;;5119004;28;20444;-71
2022/09/15 06:58:22;;;;;;;0.73;0.30;;;18.60;99.90;;;;;;5115500;27;20460;-71
2022/09/15 07:00:49;;;;;;;0.50;0.30;;;18.60;99.90;;;;;;5119869;28;20814;-71
2022/09/15 07:03:17;;;;;;;0.40;0.20;;;18.60;99.90;;;;;;5116554;28;20457;-71
2022/09/15 07:05:45;;;;;;;0.50;0.20;;;18.50;99.90;;;;;;5119003;28;20838;-71
2022/09/15 07:08:12;;;;;;;0.53;0.27;;;18.40;99.90;;;;;;5116647;28;20460;-71
2022/09/15 07:10:43;;;;;;;0.67;0.20;;;18.30;99.90;;;;;;5119694;28;20500;-71
2022/09/15 07:13:10;;;;;;;0.40;0.30;;;18.20;99.90;;;;;;5115630;28;20880;-71
2022/09/15 07:15:37;;;;;;;1.93;0.50;;;18.20;99.90;;;;;;5117388;28;20484;-71
2022/09/15 07:18:06;;;;;;;0.60;0.40;;;18.10;99.90;;;;;;5114897;28;20547;-70
2022/09/15 07:20:38;;;;;;;0.50;0.40;;;18.10;99.90;;;;;;5118280;28;20873;-71
2022/09/15 07:23:05;;;;;;;1.13;0.30;;;18.00;99.90;;;;;;5116446;28;20888;-71
2022/09/15 07:25:31;;;;;;;0.40;0.20;;;18.00;99.90;;;;;;5117143;28;20445;-71
2022/09/15 07:27:58;;;;;;;0.40;0.30;;;18.00;99.90;;;;;;5115883;28;20448;-70
2022/09/15 07:30:25;;;;;;;0.90;0.30;;;17.90;99.90;;;;;;5118904;28;20959;-70
2022/09/15 07:32:52;;;;;;;0.47;0.20;;;17.90;99.90;;;;;;5119626;28;21111;-70
2022/09/15 07:35:20;;;;;;;0.50;0.30;;;17.80;99.90;;;;;;5117620;28;20447;-71
2022/09/15 07:37:48;;;;;;;0.60;0.40;;;17.80;99.90;;;;;;5114638;28;20453;-73
2022/09/15 07:40:15;;;;;;;0.43;0.30;;;17.90;99.90;;;;;;5117414;28;20449;-72
2022/09/15 07:42:43;;;;;;;0.60;0.40;;;17.80;99.90;;;;;;5118246;28;20539;-72
2022/09/15 07:45:13;;;;;;;1.23;0.30;;;17.80;99.90;;;;;;5125955;27;20474;-72
2022/09/15 07:47:39;;;;;;;0.67;0.20;;;17.90;99.90;;;;;;5135964;27;20903;-71
2022/09/15 07:50:07;;;;;;;0.40;0.20;;;17.80;99.90;;;;;;5138563;27;20735;-71
2022/09/15 07:52:34;;;;;;;0.57;0.30;;;17.80;99.90;;;;;;5132943;27;20490;-73
2022/09/15 07:55:02;;;;;;;0.80;0.37;;;17.90;99.90;;;;;;5121410;27;20445;-75
2022/09/15 07:57:29;;;;;;;1.20;0.20;;;17.90;99.90;;;;;;5113696;28;21129;-75
2022/09/15 07:59:56;;;;;;;0.70;0.30;;;17.80;99.90;;;;;;5119719;27;20527;-73
2022/09/15 08:02:22;;;;;;;1.00;0.30;;;17.80;99.90;;;;;;5116407;27;20445;-73
2022/09/15 08:04:52;;;;;;;0.50;0.30;;;17.80;99.90;;;;;;5128780;27;20527;-74
2022/09/15 08:07:22;;;;;;;0.47;0.30;;;17.80;99.90;;;;;;5115477;28;20457;-74
2022/09/15 08:09:55;;;;;;;0.60;0.30;;;17.80;99.90;;;;;;5117837;28;20447;-73
2022/09/15 08:12:25;;;;;;;0.70;0.30;;;17.80;99.90;;;;;;5118001;28;20479;-73
2022/09/15 08:14:52;;;;;;;0.50;0.30;;;17.80;99.90;;;;;;5118366;28;20812;-73
2022/09/15 08:17:19;;;;;;;0.50;0.30;;;17.80;99.90;;;;;;5116975;27;20553;-73
2022/09/15 08:19:47;;;;;;;0.77;0.30;;;17.70;99.90;;;;;;5111589;27;20584;-73
2022/09/15 08:22:14;;;;;;;0.60;0.27;;;17.70;99.90;;;;;;5115537;28;20439;-73
2022/09/15 08:24:40;;;;;;;0.57;0.30;;;17.70;99.90;;;;;;5112618;28;20511;-72
2022/09/15 08:27:07;;;;;;;0.50;0.30;;;17.70;99.90;;;;;;5116208;28;20545;-74
2022/09/15 08:29:36;;;;;;;0.40;0.30;;;17.70;99.90;;;;;;5114150;28;20452;-75
2022/09/15 08:32:02;;;;;;;0.40;0.20;;;17.70;99.90;;;;;;5114547;28;20480;-74
2022/09/15 08:34:32;;;;;;;0.50;0.30;;;17.70;99.90;;;;;;5113527;28;20570;-73
2022/09/15 08:36:59;;;;;;;0.57;0.30;;;17.80;99.90;;;;;;5120167;27;20555;-74
2022/09/15 08:39:26;;;;;;;0.40;0.20;;;17.90;99.90;;;;;;5126556;27;20463;-72
2022/09/15 08:41:54;;;;;;;0.77;0.20;;;17.90;99.90;;;;;;5122704;27;20541;-73
2022/09/15 08:44:32;;;;;;;0.83;0.20;;;18.00;99.90;;;;;;5111992;27;21104;-73
2022/09/15 08:47:05;;;;;;;1.10;0.30;;;18.00;99.90;;;;;;5136617;27;21123;-73
2022/09/15 08:49:38;;;;;;;0.50;0.30;;;17.90;99.90;;;;;;5131959;27;20867;-74
2022/09/15 08:52:10;;;;;;;0.70;0.30;;;18.00;99.90;;;;;;5115863;28;20488;-74
2022/09/15 08:54:40;;;;;;;0.57;0.30;;;18.10;99.90;;;;;;5130977;27;20490;-74
2022/09/15 08:57:14;;;;;;;0.70;0.30;;;18.20;99.90;;;;;;5132397;27;20448;-74
2022/09/15 08:59:44;;;;;;;1.43;0.30;;;18.40;99.90;;;;;;5131225;27;20757;-72
2022/09/15 09:02:40;;;;;;;0.50;0.30;;;18.60;99.90;;;;;;5131507;27;20479;-75
2022/09/15 09:05:20;;;;;;;0.50;0.30;;;18.80;99.90;;;;;;5114309;28;20455;-74
2022/09/15 09:08:06;;;;;;;1.40;1.07;;;19.00;99.90;;;;;;5134446;27;20815;-74
2022/09/15 09:10:49;;;;;;;5.60;3.47;;;19.20;99.90;;;;;;5120366;27;20491;-74
2022/09/15 09:13:25;;;;;;;0.83;0.40;;;19.20;99.90;;;;;;5131612;27;20440;-73
2022/09/15 09:16:11;;;;;;;2.20;0.30;;;19.30;99.90;;;;;;5126586;27;20444;-74
2022/09/15 09:18:55;;;;;;;0.60;0.30;;;19.30;99.90;;;;;;5132653;27;20471;-74
2022/09/15 09:21:29;;;;;;;0.50;0.30;;;19.30;99.90;;;;;;5132631;27;20487;-75
2022/09/15 09:24:03;;;;;;;0.70;0.30;;;19.30;99.90;;;;;;5136827;27;20917;-74
2022/09/15 09:26:33;;;;;;;0.40;0.20;;;19.40;99.90;;;;;;5133708;27;20439;-74
2022/09/15 09:29:02;;;;;;;0.33;0.20;;;19.40;99.90;;;;;;5135187;27;20525;-75
2022/09/15 09:31:29;;;;;;;0.50;0.30;;;19.50;99.90;;;;;;5113897;28;20484;-74
2022/09/15 09:34:04;;;;;;;0.40;0.20;;;19.60;99.90;;;;;;5117218;28;20528;-74
2022/09/15 09:36:31;;;;;;;0.30;0.20;;;19.70;99.90;;;;;;5133725;27;20763;-74
2022/09/15 09:38:58;;;;;;;1.10;0.20;;;19.70;99.90;;;;;;5132967;27;20475;-74
2022/09/15 09:41:34;;;;;;;0.37;0.20;;;19.60;99.90;;;;;;5131703;27;20530;-74
2022/09/15 09:44:03;;;;;;;0.50;0.20;;;19.60;99.90;;;;;;5131562;27;20653;-73
2022/09/15 09:46:30;;;;;;;0.33;0.10;;;19.60;99.90;;;;;;5132301;27;20451;-74
2022/09/15 09:49:03;;;;;;;0.30;0.20;;;19.50;99.90;;;;;;5135980;27;20896;-74
2022/09/15 09:51:33;;;;;;;0.40;0.20;;;19.40;99.90;;;;;;5127358;27;20839;-74
2022/09/15 09:54:06;;;;;;;0.30;0.10;;;19.30;99.90;;;;;;5136678;27;20450;-74
2022/09/15 09:56:33;;;;;;;0.30;0.10;;;19.20;99.90;;;;;;5129849;27;20744;-73
2022/09/15 09:59:02;;;;;;;4.33;0.30;;;19.00;99.90;;;;;;5135232;28;20440;-73
2022/09/15 10:01:29;;;;;;;0.30;0.10;;;18.90;99.90;;;;;;5134239;28;20452;-73
2022/09/15 10:04:17;;;;;;;2.10;0.10;;;18.70;99.90;;;;;;5134008;28;20456;-73
2022/09/15 10:06:45;;;;;;;0.43;0.20;;;18.70;99.90;;;;;;5123967;28;20496;-72
2022/09/15 10:09:17;;;;;;;0.30;0.10;;;18.60;99.90;;;;;;5134016;28;20555;-73
2022/09/15 10:11:46;;;;;;;0.30;0.10;;;18.40;99.90;;;;;;5135512;28;20863;-72
2022/09/15 10:14:22;;;;;;;0.20;0.10;;;18.20;99.90;;;;;;5132886;28;20436;-73
2022/09/15 10:17:06;;;;;;;0.30;0.10;;;18.20;99.90;;;;;;5136144;28;20482;-73
2022/09/15 10:19:43;;;;;;;0.30;0.10;;;17.90;99.90;;;;;;5135182;28;20483;-73
2022/09/15 10:22:19;;;;;;;0.20;0.10;;;18.00;99.90;;;;;;5134851;28;20762;-72
2022/09/15 10:24:49;;;;;;;0.30;0.10;;;18.00;99.90;;;;;;5133040;28;20444;-73
2022/09/15 10:27:26;;;;;;;0.30;0.10;;;17.90;99.90;;;;;;5135294;28;20748;-73
2022/09/15 10:29:53;;;;;;;0.20;0.10;;;17.70;99.90;;;;;;5147346;27;20462;-72
2022/09/15 10:32:24;;;;;;;0.30;0.10;;;17.50;99.90;;;;;;5138853;27;20475;-73
2022/09/15 10:35:01;;;;;;;0.30;0.10;;;17.50;99.90;;;;;;5131871;28;20823;-71
2022/09/15 10:37:31;;;;;;;0.40;0.20;;;17.40;99.90;;;;;;5132357;28;20506;-71
2022/09/15 10:40:00;;;;;;;0.40;0.10;;;17.30;99.90;;;;;;5128101;28;20199;-72
2022/09/15 10:42:45;;;;;;;0.60;0.10;;;17.30;99.90;;;;;;5132994;28;20448;-71
2022/09/15 10:45:32;;;;;;;0.30;0.10;;;17.30;99.90;;;;;;5132026;27;20897;-73
2022/09/15 10:48:35;;;;;;;0.20;0.10;;;17.10;99.90;;;;;;5132417;28;20460;-72
2022/09/15 10:51:14;;;;;;;0.40;0.20;;;17.10;99.90;;;;;;5132953;28;20493;-72
2022/09/15 10:54:15;;;;;;;0.40;0.20;;;17.10;99.90;;;;;;5134358;28;20812;-71
2022/09/15 10:56:45;;;;;;;0.40;0.10;;;17.10;99.90;;;;;;5128200;28;20465;-72
2022/09/15 10:59:24;;;;;;;0.93;0.70;;;17.00;99.90;;;;;;5135243;27;20752;-72
2022/09/15 11:02:22;;;;;;;1.27;0.80;;;16.80;99.90;;;;;;5134589;27;20455;-74
2022/09/15 11:05:09;;;;;;;0.60;0.40;;;16.80;99.90;;;;;;5123699;27;20523;-73
2022/09/15 11:07:54;;;;;;;0.60;0.40;;;16.80;99.90;;;;;;5139333;27;20447;-73
2022/09/15 11:10:30;;;;;;;0.50;0.30;;;16.60;99.90;;;;;;5138797;27;20490;-74
2022/09/15 11:13:08;;;;;;;0.80;0.40;;;16.70;99.90;;;;;;5139285;27;20477;-73
2022/09/15 11:15:48;;;;;;;0.60;0.40;;;16.80;99.90;;;;;;5137893;27;20546;-72
2022/09/15 11:18:38;;;;;;;0.63;0.30;;;16.70;99.90;;;;;;5139596;27;20481;-73
2022/09/15 11:21:20;;;;;;;0.80;0.40;;;16.70;99.90;;;;;;5133877;27;20496;-72
2022/09/15 11:23:54;;;;;;;0.50;0.40;;;16.70;99.90;;;;;;5137755;27;20505;-73
2022/09/15 11:26:28;;;;;;;0.70;0.50;;;16.70;99.90;;;;;;5136122;27;20946;-73
2022/09/15 11:28:59;;;;;;;0.63;0.43;;;16.70;99.90;;;;;;5138111;27;20449;-72
2022/09/15 11:31:29;;;;;;;0.60;0.40;;;16.90;99.90;;;;;;5134485;27;20474;-73
2022/09/15 11:34:01;;;;;;;3.53;0.50;;;17.00;99.90;;;;;;5127354;27;20480;-73
2022/09/15 11:36:33;;;;;;;0.70;0.40;;;16.90;99.90;;;;;;5136577;27;20462;-73
2022/09/15 11:39:07;;;;;;;1.03;0.40;;;16.90;99.90;;;;;;5138082;27;20955;-73
2022/09/15 11:41:39;;;;;;;0.50;0.40;;;16.70;99.90;;;;;;5133543;27;20458;-73
2022/09/15 11:44:23;;;;;;;0.80;0.50;;;16.50;99.90;;;;;;5128593;27;20517;-71
2022/09/15 11:47:03;;;;;;;0.63;0.47;;;16.40;99.90;;;;;;5117395;27;20460;-72
2022/09/15 11:49:35;;;;;;;0.90;0.40;;;16.40;99.90;;;;;;5122024;27;20548;-73
2022/09/15 11:52:14;;;;;;;0.60;0.43;;;16.60;99.90;;;;;;5119463;27;20480;-74
2022/09/15 11:54:48;;;;;;;2.50;0.50;;;16.60;99.90;;;;;;5116642;28;20444;-73
2022/09/15 11:57:18;;;;;;;1.13;0.47;;;16.70;99.90;;;;;;5114246;28;20834;-74
2022/09/15 11:59:55;;;;;;;0.67;0.67;;;16.60;99.90;;;;;;5134141;27;20538;-74
2022/09/15 12:02:29;;;;;;;0.60;0.40;;;16.60;99.90;;;;;;5115187;28;20448;-74
2022/09/15 12:05:05;;;;;;;0.70;0.50;;;16.50;99.90;;;;;;5117573;28;20506;-72
2022/09/15 12:07:38;;;;;;;1.00;0.63;;;16.40;99.90;;;;;;5121478;27;20456;-72
2022/09/15 12:10:15;;;;;;;0.80;0.60;;;16.30;99.90;;;;;;5136821;27;20450;-72
2022/09/15 12:12:43;;;;;;;1.37;0.40;;;16.30;99.90;;;;;;5137810;27;20505;-73
2022/09/15 12:15:26;;;;;;;0.70;0.50;;;16.40;99.90;;;;;;5137399;27;20436;-72
2022/09/15 12:18:03;;;;;;;0.90;0.43;;;16.40;99.90;;;;;;5113372;28;20455;-73
2022/09/15 12:20:36;;;;;;;0.80;0.50;;;16.40;99.90;;;;;;5115020;28;20444;-73
2022/09/15 12:23:16;;;;;;;0.97;0.43;;;16.60;99.90;;;;;;5116246;28;20457;-72
2022/09/15 12:26:00;;;;;;;1.60;0.50;;;16.80;99.90;;;;;;5115529;28;20452;-73
2022/09/15 12:28:41;;;;;;;0.80;0.60;;;17.00;99.90;;;;;;5117590;28;20935;-73
2022/09/15 12:31:23;;;;;;;0.80;0.50;;;17.10;99.90;;;;;;5129646;27;20479;-73
2022/09/15 12:33:54;;;;;;;0.63;0.50;;;17.10;99.90;;;;;;5132898;27;20478;-72
2022/09/15 12:36:40;;;;;;;0.60;0.40;;;17.20;99.90;;;;;;5111393;28;20444;-72
2022/09/15 12:39:22;;;;;;;0.90;0.50;;;17.30;99.90;;;;;;5117046;27;20504;-73
2022/09/15 12:41:52;;;;;;;0.73;0.50;;;17.40;99.90;;;;;;5117524;28;20437;-72
2022/09/15 12:44:27;;;;;;;0.70;0.50;;;17.40;99.90;;;;;;5113610;28;20452;-72
2022/09/15 12:46:56;;;;;;;0.83;0.50;;;17.40;99.90;;;;;;5116711;28;20448;-72
2022/09/15 12:49:29;;;;;;;1.00;0.50;;;17.50;99.90;;;;;;5112350;28;20463;-72
2022/09/15 12:51:58;;;;;;;1.10;0.67;;;17.50;99.90;;;;;;5113089;28;20449;-72
2022/09/15 12:54:30;;;;;;;0.70;0.60;;;17.60;99.90;;;;;;5113181;28;20722;-72
2022/09/15 12:56:59;;;;;;;1.00;0.60;;;17.50;99.90;;;;;;5115759;28;20456;-72
2022/09/15 12:59:28;;;;;;;0.80;0.50;;;17.30;99.90;;;;;;5112786;28;20523;-72
2022/09/15 13:01:56;;;;;;;1.30;0.50;;;17.40;99.90;;;;;;5117180;28;20455;-72
2022/09/15 13:04:42;;;;;;;1.73;0.50;;;17.60;99.90;;;;;;5114128;28;20899;-72
2022/09/15 13:07:34;;;;;;;0.70;0.50;;;17.70;99.90;;;;;;5115156;28;20607;-72
2022/09/15 13:10:26;;;;;;;0.90;0.60;;;17.90;99.90;;;;;;5073488;28;20456;-72